Ontario, CA (91764)

10:56 PM PDT on August 31, 2016 (GMT -0700)
Winery Ridge | | Change Station

Elev 1263 ft 34.11 °N, 117.61 °W | Updated 3 seconds ago

Clear
Clear
74.7 °F
Feels Like 77 °F
N
0.2
Wind Variable Wind from WNW
Gusts 2.5 mph

Today
High -- | Low -- °F
--% Chance of Precip.
Yesterday
High -- | Low -- °F
Precip. -- in
Pressure 29.83 in
Visibility 10.0 miles
Clouds Clear
Heat Index 77 °F
Dew Point 62 °F
Humidity 64%
Rainfall 0.00 in
Snow Depth Not available.
6:23 AM 7:16 PM
Waning Crescent, 0% visible
METAR KONT 010553Z 25005KT 10SM CLR 24/14 A2988 RMK AO2 SLP101 T02390139 10367 20233 51018 $
Pressure 29.83 in
Visibility 10.0 miles
Clouds Clear
Heat Index 77 °F
Dew Point 62 °F
Humidity 64%
Rainfall 0.00 in
Snow Depth Not available.
6:23 AM 7:16 PM
Waning Crescent, 0% visible
METAR KONT 010553Z 25005KT 10SM CLR 24/14 A2988 RMK AO2 SLP101 T02390139 10367 20233 51018 $

10-Day Weather Forecast

Almanac

Astronomy

Aug. 31, 2016 Rise Set
Actual Time
Civil Twilight
Nautical Twilight
Astronomical Twilight
Moon
Length of Visible Light
Length of Day
Tomorrow will be .
, % of the Moon is Illuminated

Today's Extremes

State Highs State Lows

Community

WunderPhotos

Upload Photos

1,936,313 photos uploaded!

WunderBlog® & News

Nearby

Air Quality

  Air Quality AQ Index Pollutant
Not available.

Snow Depth

Station Depth Elevation

Earthquake Activity

City Distance Mag. Time & Date
Minimum magnitude displayed is 2.5.

Coastal Water Temperatures

Place Temperature

Stations

Nearby Weather Stations

Station Location Temp. Windchill Dew Point Humidity Wind Precip. Elev Updated Type
                   

Watches & Warnings

There are currently no watches in effect.